sensor_id;sensor_type;location;lat;lon;timestamp;temperature;humidity
9881;DHT22;4979;51.014;6.678;2023-07-31T00:00:38;17.00;99.90
9881;DHT22;4979;51.014;6.678;2023-07-31T00:03:03;17.00;99.90
9881;DHT22;4979;51.014;6.678;2023-07-31T00:05:29;17.10;99.90
9881;DHT22;4979;51.014;6.678;2023-07-31T00:07:54;17.20;99.90
9881;DHT22;4979;51.014;6.678;2023-07-31T00:10:20;17.00;99.90
9881;DHT22;4979;51.014;6.678;2023-07-31T00:12:46;17.00;99.90
9881;DHT22;4979;51.014;6.678;2023-07-31T00:15:13;17.00;99.90
9881;DHT22;4979;51.014;6.678;2023-07-31T00:17:39;17.00;99.90
9881;DHT22;4979;51.014;6.678;2023-07-31T00:20:05;16.90;99.90
9881;DHT22;4979;51.014;6.678;2023-07-31T00:22:31;17.00;99.90
9881;DHT22;4979;51.014;6.678;2023-07-31T00:24:57;17.10;99.90
9881;DHT22;4979;51.014;6.678;2023-07-31T00:27:23;17.10;99.90
9881;DHT22;4979;51.014;6.678;2023-07-31T00:29:48;17.00;99.90
9881;DHT22;4979;51.014;6.678;2023-07-31T00:32:14;17.10;99.90
9881;DHT22;4979;51.014;6.678;2023-07-31T00:34:39;17.10;99.90
9881;DHT22;4979;51.014;6.678;2023-07-31T00:37:05;17.10;99.90
9881;DHT22;4979;51.014;6.678;2023-07-31T00:39:31;17.00;99.90
9881;DHT22;4979;51.014;6.678;2023-07-31T00:41:57;17.10;99.90
9881;DHT22;4979;51.014;6.678;2023-07-31T00:44:22;17.00;99.90
9881;DHT22;4979;51.014;6.678;2023-07-31T00:46:48;17.10;99.90
9881;DHT22;4979;51.014;6.678;2023-07-31T00:49:14;17.00;99.90
9881;DHT22;4979;51.014;6.678;2023-07-31T00:51:40;17.00;99.90
9881;DHT22;4979;51.014;6.678;2023-07-31T00:54:06;17.10;99.90
9881;DHT22;4979;51.014;6.678;2023-07-31T00:56:32;17.00;99.90
9881;DHT22;4979;51.014;6.678;2023-07-31T00:58:58;17.10;99.90
9881;DHT22;4979;51.014;6.678;2023-07-31T01:01:23;17.20;99.90
9881;DHT22;4979;51.014;6.678;2023-07-31T01:03:50;17.10;99.90
9881;DHT22;4979;51.014;6.678;2023-07-31T01:06:44;17.10;99.90
9881;DHT22;4979;51.014;6.678;2023-07-31T01:09:21;17.10;99.90
9881;DHT22;4979;51.014;6.678;2023-07-31T01:12:02;17.00;99.90
9881;DHT22;4979;51.014;6.678;2023-07-31T01:14:28;17.00;99.90
9881;DHT22;4979;51.014;6.678;2023-07-31T01:16:54;17.10;99.90
9881;DHT22;4979;51.014;6.678;2023-07-31T01:19:23;17.00;99.90
9881;DHT22;4979;51.014;6.678;2023-07-31T01:28:02;17.10;99.90
9881;DHT22;4979;51.014;6.678;2023-07-31T01:30:33;17.00;99.90
9881;DHT22;4979;51.014;6.678;2023-07-31T01:33:01;17.10;99.90
9881;DHT22;4979;51.014;6.678;2023-07-31T01:35:33;17.10;99.90
9881;DHT22;4979;51.014;6.678;2023-07-31T01:37:59;17.00;99.90
9881;DHT22;4979;51.014;6.678;2023-07-31T01:40:24;17.00;99.90
9881;DHT22;4979;51.014;6.678;2023-07-31T01:42:50;17.10;99.90
9881;DHT22;4979;51.014;6.678;2023-07-31T01:45:15;17.00;99.90
9881;DHT22;4979;51.014;6.678;2023-07-31T01:47:41;17.00;99.90
9881;DHT22;4979;51.014;6.678;2023-07-31T01:50:07;17.00;99.90
9881;DHT22;4979;51.014;6.678;2023-07-31T01:52:32;17.10;99.90
9881;DHT22;4979;51.014;6.678;2023-07-31T01:54:58;17.00;99.90
9881;DHT22;4979;51.014;6.678;2023-07-31T01:57:23;17.00;99.90
9881;DHT22;4979;51.014;6.678;2023-07-31T01:59:49;17.10;99.90
9881;DHT22;4979;51.014;6.678;2023-07-31T02:02:15;17.00;99.90
9881;DHT22;4979;51.014;6.678;2023-07-31T02:04:41;17.10;99.90
9881;DHT22;4979;51.014;6.678;2023-07-31T02:07:06;17.00;99.90
9881;DHT22;4979;51.014;6.678;2023-07-31T02:09:32;17.10;99.90
9881;DHT22;4979;51.014;6.678;2023-07-31T02:11:57;17.20;99.90
9881;DHT22;4979;51.014;6.678;2023-07-31T02:14:23;17.10;99.90
9881;DHT22;4979;51.014;6.678;2023-07-31T02:16:49;17.20;99.90
9881;DHT22;4979;51.014;6.678;2023-07-31T02:19:15;17.20;99.90
9881;DHT22;4979;51.014;6.678;2023-07-31T02:21:40;17.20;99.90
9881;DHT22;4979;51.014;6.678;2023-07-31T02:24:06;17.30;99.90
9881;DHT22;4979;51.014;6.678;2023-07-31T02:26:31;17.10;99.90
9881;DHT22;4979;51.014;6.678;2023-07-31T02:28:57;17.20;99.90
9881;DHT22;4979;51.014;6.678;2023-07-31T02:31:22;17.10;99.90
9881;DHT22;4979;51.014;6.678;2023-07-31T02:33:48;17.20;99.90
9881;DHT22;4979;51.014;6.678;2023-07-31T02:36:13;17.20;99.90
9881;DHT22;4979;51.014;6.678;2023-07-31T02:38:40;17.30;99.90
9881;DHT22;4979;51.014;6.678;2023-07-31T02:41:05;17.30;99.90
9881;DHT22;4979;51.014;6.678;2023-07-31T02:43:31;17.40;99.90
9881;DHT22;4979;51.014;6.678;2023-07-31T02:45:56;17.30;99.90
9881;DHT22;4979;51.014;6.678;2023-07-31T02:48:22;17.30;99.90
9881;DHT22;4979;51.014;6.678;2023-07-31T02:50:48;17.20;99.90
9881;DHT22;4979;51.014;6.678;2023-07-31T02:53:13;17.30;99.90
9881;DHT22;4979;51.014;6.678;2023-07-31T02:55:39;17.20;99.90
9881;DHT22;4979;51.014;6.678;2023-07-31T02:58:05;17.20;99.90
9881;DHT22;4979;51.014;6.678;2023-07-31T03:00:30;17.30;99.90
9881;DHT22;4979;51.014;6.678;2023-07-31T03:02:56;18.90;99.90
9881;DHT22;4979;51.014;6.678;2023-07-31T03:05:21;17.30;99.90
9881;DHT22;4979;51.014;6.678;2023-07-31T03:07:47;17.40;99.90
9881;DHT22;4979;51.014;6.678;2023-07-31T03:10:12;17.40;99.90
9881;DHT22;4979;51.014;6.678;2023-07-31T03:12:38;17.30;99.90
9881;DHT22;4979;51.014;6.678;2023-07-31T03:15:04;17.20;99.90
9881;DHT22;4979;51.014;6.678;2023-07-31T03:17:29;17.30;99.90
9881;DHT22;4979;51.014;6.678;2023-07-31T03:19:55;17.30;99.90
9881;DHT22;4979;51.014;6.678;2023-07-31T03:22:20;17.30;99.90
9881;DHT22;4979;51.014;6.678;2023-07-31T03:24:46;17.20;99.90
9881;DHT22;4979;51.014;6.678;2023-07-31T03:27:11;17.40;99.90
9881;DHT22;4979;51.014;6.678;2023-07-31T03:29:37;17.40;99.90
9881;DHT22;4979;51.014;6.678;2023-07-31T03:32:03;17.30;99.90
9881;DHT22;4979;51.014;6.678;2023-07-31T03:34:29;17.30;99.90
9881;DHT22;4979;51.014;6.678;2023-07-31T03:36:55;17.30;99.90
9881;DHT22;4979;51.014;6.678;2023-07-31T03:39:20;17.30;99.90
9881;DHT22;4979;51.014;6.678;2023-07-31T03:41:46;17.30;99.90
9881;DHT22;4979;51.014;6.678;2023-07-31T03:44:11;17.30;99.90
9881;DHT22;4979;51.014;6.678;2023-07-31T03:46:37;17.30;99.90
9881;DHT22;4979;51.014;6.678;2023-07-31T03:49:02;17.20;99.90
9881;DHT22;4979;51.014;6.678;2023-07-31T03:51:28;17.20;99.90
9881;DHT22;4979;51.014;6.678;2023-07-31T03:53:54;17.20;99.90
9881;DHT22;4979;51.014;6.678;2023-07-31T03:56:19;17.20;99.90
9881;DHT22;4979;51.014;6.678;2023-07-31T03:58:45;17.20;99.90
9881;DHT22;4979;51.014;6.678;2023-07-31T04:01:10;17.20;99.90
9881;DHT22;4979;51.014;6.678;2023-07-31T04:03:36;17.30;99.90
9881;DHT22;4979;51.014;6.678;2023-07-31T04:06:01;17.40;99.90
9881;DHT22;4979;51.014;6.678;2023-07-31T04:08:27;17.20;99.90
9881;DHT22;4979;51.014;6.678;2023-07-31T04:10:52;17.30;99.90
9881;DHT22;4979;51.014;6.678;2023-07-31T04:13:18;17.20;99.90
9881;DHT22;4979;51.014;6.678;2023-07-31T04:15:51;17.20;99.90
9881;DHT22;4979;51.014;6.678;2023-07-31T04:18:16;17.20;99.90
9881;DHT22;4979;51.014;6.678;2023-07-31T04:20:42;17.40;99.90
9881;DHT22;4979;51.014;6.678;2023-07-31T04:23:07;17.30;99.90
9881;DHT22;4979;51.014;6.678;2023-07-31T04:25:33;17.30;99.90
9881;DHT22;4979;51.014;6.678;2023-07-31T04:28:00;17.30;99.90
9881;DHT22;4979;51.014;6.678;2023-07-31T04:30:26;17.40;99.90
9881;DHT22;4979;51.014;6.678;2023-07-31T04:32:51;17.40;99.90
9881;DHT22;4979;51.014;6.678;2023-07-31T04:35:17;17.40;99.90
9881;DHT22;4979;51.014;6.678;2023-07-31T04:37:42;17.40;99.90
9881;DHT22;4979;51.014;6.678;2023-07-31T04:40:08;17.50;99.90
9881;DHT22;4979;51.014;6.678;2023-07-31T04:42:34;17.30;99.90
9881;DHT22;4979;51.014;6.678;2023-07-31T04:44:59;17.50;99.90
9881;DHT22;4979;51.014;6.678;2023-07-31T04:47:25;17.50;99.90
9881;DHT22;4979;51.014;6.678;2023-07-31T04:49:51;17.40;99.90
9881;DHT22;4979;51.014;6.678;2023-07-31T04:52:16;17.40;99.90
9881;DHT22;4979;51.014;6.678;2023-07-31T04:54:42;17.50;99.90
9881;DHT22;4979;51.014;6.678;2023-07-31T04:57:07;17.50;99.90
9881;DHT22;4979;51.014;6.678;2023-07-31T04:59:33;17.60;99.90
9881;DHT22;4979;51.014;6.678;2023-07-31T05:01:58;17.50;99.90
9881;DHT22;4979;51.014;6.678;2023-07-31T05:04:24;17.60;99.90
9881;DHT22;4979;51.014;6.678;2023-07-31T05:06:49;17.60;99.90
9881;DHT22;4979;51.014;6.678;2023-07-31T05:09:15;17.60;99.90
9881;DHT22;4979;51.014;6.678;2023-07-31T05:11:41;17.70;99.90
9881;DHT22;4979;51.014;6.678;2023-07-31T05:14:08;17.70;99.90
9881;DHT22;4979;51.014;6.678;2023-07-31T05:16:34;19.30;99.90
9881;DHT22;4979;51.014;6.678;2023-07-31T05:18:59;17.80;99.90
9881;DHT22;4979;51.014;6.678;2023-07-31T05:21:25;16.40;99.90
9881;DHT22;4979;51.014;6.678;2023-07-31T05:23:51;17.90;99.90
9881;DHT22;4979;51.014;6.678;2023-07-31T05:26:16;17.80;99.90
9881;DHT22;4979;51.014;6.678;2023-07-31T05:28:43;17.80;99.90
9881;DHT22;4979;51.014;6.678;2023-07-31T05:31:08;17.90;99.90
9881;DHT22;4979;51.014;6.678;2023-07-31T05:33:34;17.80;99.90
9881;DHT22;4979;51.014;6.678;2023-07-31T05:35:59;17.80;99.90
9881;DHT22;4979;51.014;6.678;2023-07-31T05:38:25;17.70;99.90
9881;DHT22;4979;51.014;6.678;2023-07-31T05:40:51;17.70;99.90
9881;DHT22;4979;51.014;6.678;2023-07-31T05:43:16;17.70;99.90
9881;DHT22;4979;51.014;6.678;2023-07-31T05:45:42;17.70;99.90
9881;DHT22;4979;51.014;6.678;2023-07-31T05:48:08;17.80;99.90
9881;DHT22;4979;51.014;6.678;2023-07-31T05:50:34;17.70;99.90
9881;DHT22;4979;51.014;6.678;2023-07-31T05:52:59;17.70;99.90
9881;DHT22;4979;51.014;6.678;2023-07-31T05:55:25;17.70;99.90
9881;DHT22;4979;51.014;6.678;2023-07-31T05:57:52;17.70;99.90
9881;DHT22;4979;51.014;6.678;2023-07-31T06:00:18;17.60;99.90
9881;DHT22;4979;51.014;6.678;2023-07-31T06:02:43;17.70;99.90
9881;DHT22;4979;51.014;6.678;2023-07-31T06:05:09;17.60;99.90
9881;DHT22;4979;51.014;6.678;2023-07-31T06:07:35;17.70;99.90
9881;DHT22;4979;51.014;6.678;2023-07-31T06:10:01;17.50;99.90
9881;DHT22;4979;51.014;6.678;2023-07-31T06:12:31;17.60;99.90
9881;DHT22;4979;51.014;6.678;2023-07-31T06:14:56;17.50;99.90
9881;DHT22;4979;51.014;6.678;2023-07-31T06:17:22;17.50;99.90
9881;DHT22;4979;51.014;6.678;2023-07-31T06:19:48;17.60;99.90
9881;DHT22;4979;51.014;6.678;2023-07-31T06:22:13;17.50;99.90
9881;DHT22;4979;51.014;6.678;2023-07-31T06:24:39;17.60;99.90
9881;DHT22;4979;51.014;6.678;2023-07-31T06:27:04;17.70;99.90
9881;DHT22;4979;51.014;6.678;2023-07-31T06:29:31;17.60;99.90
9881;DHT22;4979;51.014;6.678;2023-07-31T06:31:57;17.70;99.90
9881;DHT22;4979;51.014;6.678;2023-07-31T06:34:22;17.70;99.90
9881;DHT22;4979;51.014;6.678;2023-07-31T06:36:48;16.50;99.90
9881;DHT22;4979;51.014;6.678;2023-07-31T06:39:13;17.70;99.90
9881;DHT22;4979;51.014;6.678;2023-07-31T06:41:39;17.80;99.90
9881;DHT22;4979;51.014;6.678;2023-07-31T06:44:04;18.00;99.90
9881;DHT22;4979;51.014;6.678;2023-07-31T06:46:30;18.00;99.90
9881;DHT22;4979;51.014;6.678;2023-07-31T06:48:55;18.10;99.90
9881;DHT22;4979;51.014;6.678;2023-07-31T06:51:21;18.10;99.90
9881;DHT22;4979;51.014;6.678;2023-07-31T06:53:47;18.10;99.90
9881;DHT22;4979;51.014;6.678;2023-07-31T06:56:12;18.20;99.90
9881;DHT22;4979;51.014;6.678;2023-07-31T06:58:38;18.20;99.90
9881;DHT22;4979;51.014;6.678;2023-07-31T07:01:03;18.10;99.90
9881;DHT22;4979;51.014;6.678;2023-07-31T07:03:29;18.10;99.90
9881;DHT22;4979;51.014;6.678;2023-07-31T07:05:55;18.20;99.90
9881;DHT22;4979;51.014;6.678;2023-07-31T07:08:20;18.10;99.90
9881;DHT22;4979;51.014;6.678;2023-07-31T07:10:46;18.10;99.90
9881;DHT22;4979;51.014;6.678;2023-07-31T07:13:12;18.20;99.90
9881;DHT22;4979;51.014;6.678;2023-07-31T07:15:38;18.20;99.90
9881;DHT22;4979;51.014;6.678;2023-07-31T07:18:05;18.10;99.90
9881;DHT22;4979;51.014;6.678;2023-07-31T07:20:31;18.30;99.90
9881;DHT22;4979;51.014;6.678;2023-07-31T07:22:56;17.90;99.90
9881;DHT22;4979;51.014;6.678;2023-07-31T07:25:22;18.00;99.90
9881;DHT22;4979;51.014;6.678;2023-07-31T07:27:47;18.10;99.90
9881;DHT22;4979;51.014;6.678;2023-07-31T07:30:13;18.00;99.90
9881;DHT22;4979;51.014;6.678;2023-07-31T07:32:39;18.00;99.90
9881;DHT22;4979;51.014;6.678;2023-07-31T07:35:06;17.90;99.90
9881;DHT22;4979;51.014;6.678;2023-07-31T07:37:31;17.80;99.90
9881;DHT22;4979;51.014;6.678;2023-07-31T07:39:57;17.70;99.90
9881;DHT22;4979;51.014;6.678;2023-07-31T07:42:23;17.80;99.90
9881;DHT22;4979;51.014;6.678;2023-07-31T07:44:48;17.80;99.90
9881;DHT22;4979;51.014;6.678;2023-07-31T07:47:14;17.70;99.90
9881;DHT22;4979;51.014;6.678;2023-07-31T07:49:39;17.80;99.90
9881;DHT22;4979;51.014;6.678;2023-07-31T07:52:05;17.60;99.90
9881;DHT22;4979;51.014;6.678;2023-07-31T07:54:31;17.70;99.90
9881;DHT22;4979;51.014;6.678;2023-07-31T07:56:57;17.70;99.90
9881;DHT22;4979;51.014;6.678;2023-07-31T07:59:23;17.70;99.90
9881;DHT22;4979;51.014;6.678;2023-07-31T08:01:48;17.70;99.90
9881;DHT22;4979;51.014;6.678;2023-07-31T08:04:14;17.90;99.90
9881;DHT22;4979;51.014;6.678;2023-07-31T08:06:40;17.70;99.90
9881;DHT22;4979;51.014;6.678;2023-07-31T08:09:05;17.80;99.90
9881;DHT22;4979;51.014;6.678;2023-07-31T08:11:34;17.80;99.90
9881;DHT22;4979;51.014;6.678;2023-07-31T08:14:00;17.80;99.90
9881;DHT22;4979;51.014;6.678;2023-07-31T08:16:26;17.80;99.90
9881;DHT22;4979;51.014;6.678;2023-07-31T08:18:51;17.90;99.90
9881;DHT22;4979;51.014;6.678;2023-07-31T08:21:17;18.00;99.90
9881;DHT22;4979;51.014;6.678;2023-07-31T08:23:42;17.90;99.90
9881;DHT22;4979;51.014;6.678;2023-07-31T08:26:08;18.00;99.90
9881;DHT22;4979;51.014;6.678;2023-07-31T08:28:33;18.00;99.90
9881;DHT22;4979;51.014;6.678;2023-07-31T08:31:00;18.00;99.90
9881;DHT22;4979;51.014;6.678;2023-07-31T08:33:25;18.10;99.90
9881;DHT22;4979;51.014;6.678;2023-07-31T08:35:51;18.20;99.90
9881;DHT22;4979;51.014;6.678;2023-07-31T08:38:17;18.10;99.90
9881;DHT22;4979;51.014;6.678;2023-07-31T08:40:42;18.10;99.90
9881;DHT22;4979;51.014;6.678;2023-07-31T08:43:09;18.30;99.90
9881;DHT22;4979;51.014;6.678;2023-07-31T08:45:34;18.20;99.90
9881;DHT22;4979;51.014;6.678;2023-07-31T08:48:00;18.20;99.90
9881;DHT22;4979;51.014;6.678;2023-07-31T08:50:26;18.20;99.90
9881;DHT22;4979;51.014;6.678;2023-07-31T08:52:52;18.20;99.90
9881;DHT22;4979;51.014;6.678;2023-07-31T08:55:18;18.20;99.90
9881;DHT22;4979;51.014;6.678;2023-07-31T08:57:51;18.20;99.90
9881;DHT22;4979;51.014;6.678;2023-07-31T09:00:16;18.30;99.90
9881;DHT22;4979;51.014;6.678;2023-07-31T09:03:03;18.30;99.90
9881;DHT22;4979;51.014;6.678;2023-07-31T09:05:33;18.20;99.90
9881;DHT22;4979;51.014;6.678;2023-07-31T09:08:00;18.30;99.90
9881;DHT22;4979;51.014;6.678;2023-07-31T09:10:26;18.40;99.90
9881;DHT22;4979;51.014;6.678;2023-07-31T09:12:52;18.20;99.90
9881;DHT22;4979;51.014;6.678;2023-07-31T09:15:18;18.30;99.90
9881;DHT22;4979;51.014;6.678;2023-07-31T09:17:44;18.20;99.90
9881;DHT22;4979;51.014;6.678;2023-07-31T09:20:18;18.50;99.90
9881;DHT22;4979;51.014;6.678;2023-07-31T09:22:45;18.60;99.90
9881;DHT22;4979;51.014;6.678;2023-07-31T09:25:21;18.60;99.90
9881;DHT22;4979;51.014;6.678;2023-07-31T09:27:50;18.60;99.90
9881;DHT22;4979;51.014;6.678;2023-07-31T09:30:17;18.70;99.90
9881;DHT22;4979;51.014;6.678;2023-07-31T09:32:44;18.80;99.90
9881;DHT22;4979;51.014;6.678;2023-07-31T09:35:27;18.80;99.90
9881;DHT22;4979;51.014;6.678;2023-07-31T09:37:55;18.90;99.90
9881;DHT22;4979;51.014;6.678;2023-07-31T09:43:04;18.90;99.90
9881;DHT22;4979;51.014;6.678;2023-07-31T09:45:35;19.00;99.90
9881;DHT22;4979;51.014;6.678;2023-07-31T09:48:02;19.00;99.90
9881;DHT22;4979;51.014;6.678;2023-07-31T09:50:28;19.20;99.90
9881;DHT22;4979;51.014;6.678;2023-07-31T09:52:54;19.20;99.90
9881;DHT22;4979;51.014;6.678;2023-07-31T09:55:20;19.30;99.90
9881;DHT22;4979;51.014;6.678;2023-07-31T09:57:47;19.20;99.90
9881;DHT22;4979;51.014;6.678;2023-07-31T10:00:17;19.20;99.90
9881;DHT22;4979;51.014;6.678;2023-07-31T10:02:45;19.20;99.90
9881;DHT22;4979;51.014;6.678;2023-07-31T10:05:14;19.30;99.90
9881;DHT22;4979;51.014;6.678;2023-07-31T10:07:42;19.40;99.90
9881;DHT22;4979;51.014;6.678;2023-07-31T10:10:09;19.50;99.90
9881;DHT22;4979;51.014;6.678;2023-07-31T10:12:35;19.50;99.90
9881;DHT22;4979;51.014;6.678;2023-07-31T10:15:02;19.40;99.90
9881;DHT22;4979;51.014;6.678;2023-07-31T10:17:29;19.60;99.90
9881;DHT22;4979;51.014;6.678;2023-07-31T10:19:57;19.50;99.90
9881;DHT22;4979;51.014;6.678;2023-07-31T10:22:23;19.20;99.90
9881;DHT22;4979;51.014;6.678;2023-07-31T10:24:50;19.30;99.90
9881;DHT22;4979;51.014;6.678;2023-07-31T10:27:17;19.30;99.90
9881;DHT22;4979;51.014;6.678;2023-07-31T10:29:43;19.40;99.90
9881;DHT22;4979;51.014;6.678;2023-07-31T10:32:13;19.50;99.90
9881;DHT22;4979;51.014;6.678;2023-07-31T10:34:40;19.50;99.90
9881;DHT22;4979;51.014;6.678;2023-07-31T10:37:25;19.50;99.90
9881;DHT22;4979;51.014;6.678;2023-07-31T10:40:03;19.30;99.90
9881;DHT22;4979;51.014;6.678;2023-07-31T10:42:36;19.10;99.90
9881;DHT22;4979;51.014;6.678;2023-07-31T10:45:10;19.10;99.90
9881;DHT22;4979;51.014;6.678;2023-07-31T10:47:45;19.30;99.90
9881;DHT22;4979;51.014;6.678;2023-07-31T10:50:19;19.50;99.90
9881;DHT22;4979;51.014;6.678;2023-07-31T10:52:53;19.40;99.90
9881;DHT22;4979;51.014;6.678;2023-07-31T10:55:25;19.40;99.90
9881;DHT22;4979;51.014;6.678;2023-07-31T10:57:52;19.40;99.90
9881;DHT22;4979;51.014;6.678;2023-07-31T11:00:22;19.50;99.90
9881;DHT22;4979;51.014;6.678;2023-07-31T11:03:18;19.80;99.90
9881;DHT22;4979;51.014;6.678;2023-07-31T11:05:54;20.00;99.90
9881;DHT22;4979;51.014;6.678;2023-07-31T11:08:28;20.30;99.90
9881;DHT22;4979;51.014;6.678;2023-07-31T11:13:30;20.50;99.90
9881;DHT22;4979;51.014;6.678;2023-07-31T11:15:56;20.30;99.90
9881;DHT22;4979;51.014;6.678;2023-07-31T11:18:21;20.40;99.90
9881;DHT22;4979;51.014;6.678;2023-07-31T11:20:47;20.30;99.90
9881;DHT22;4979;51.014;6.678;2023-07-31T11:23:16;20.20;99.90
9881;DHT22;4979;51.014;6.678;2023-07-31T11:25:42;20.50;99.90
9881;DHT22;4979;51.014;6.678;2023-07-31T11:28:15;20.40;99.90
9881;DHT22;4979;51.014;6.678;2023-07-31T11:30:41;20.40;99.90
9881;DHT22;4979;51.014;6.678;2023-07-31T11:33:08;20.50;99.90
9881;DHT22;4979;51.014;6.678;2023-07-31T11:35:45;20.80;99.90
9881;DHT22;4979;51.014;6.678;2023-07-31T11:38:25;20.40;99.90
9881;DHT22;4979;51.014;6.678;2023-07-31T11:40:52;20.30;99.90
9881;DHT22;4979;51.014;6.678;2023-07-31T11:43:19;20.40;99.90
9881;DHT22;4979;51.014;6.678;2023-07-31T11:45:50;20.60;99.90
9881;DHT22;4979;51.014;6.678;2023-07-31T11:48:29;20.70;99.90
9881;DHT22;4979;51.014;6.678;2023-07-31T11:50:59;20.50;99.90
9881;DHT22;4979;51.014;6.678;2023-07-31T11:53:29;20.40;99.90
9881;DHT22;4979;51.014;6.678;2023-07-31T11:55:58;20.30;99.90
9881;DHT22;4979;51.014;6.678;2023-07-31T11:58:24;20.40;99.90
9881;DHT22;4979;51.014;6.678;2023-07-31T12:00:51;20.20;99.90
9881;DHT22;4979;51.014;6.678;2023-07-31T12:03:18;20.10;99.90
9881;DHT22;4979;51.014;6.678;2023-07-31T12:05:43;19.90;99.90
9881;DHT22;4979;51.014;6.678;2023-07-31T12:08:10;20.00;99.90
9881;DHT22;4979;51.014;6.678;2023-07-31T12:10:40;20.10;99.90
9881;DHT22;4979;51.014;6.678;2023-07-31T12:13:24;20.10;99.90
9881;DHT22;4979;51.014;6.678;2023-07-31T12:15:54;19.80;99.90
9881;DHT22;4979;51.014;6.678;2023-07-31T12:18:22;19.90;99.90
9881;DHT22;4979;51.014;6.678;2023-07-31T12:20:58;20.00;99.90
9881;DHT22;4979;51.014;6.678;2023-07-31T12:23:29;20.10;99.90
9881;DHT22;4979;51.014;6.678;2023-07-31T12:26:17;20.00;99.90
9881;DHT22;4979;51.014;6.678;2023-07-31T12:28:49;20.30;99.90
9881;DHT22;4979;51.014;6.678;2023-07-31T12:31:20;20.30;99.90
9881;DHT22;4979;51.014;6.678;2023-07-31T12:33:48;20.40;99.90
9881;DHT22;4979;51.014;6.678;2023-07-31T12:36:17;20.40;99.90
9881;DHT22;4979;51.014;6.678;2023-07-31T12:38:44;20.50;99.90
9881;DHT22;4979;51.014;6.678;2023-07-31T12:41:10;20.70;99.90
9881;DHT22;4979;51.014;6.678;2023-07-31T12:43:36;20.80;99.90
9881;DHT22;4979;51.014;6.678;2023-07-31T12:46:03;20.70;99.90
9881;DHT22;4979;51.014;6.678;2023-07-31T12:48:29;21.00;99.90
9881;DHT22;4979;51.014;6.678;2023-07-31T12:50:55;21.00;99.90
9881;DHT22;4979;51.014;6.678;2023-07-31T12:53:20;21.30;99.90
9881;DHT22;4979;51.014;6.678;2023-07-31T12:55:46;21.10;99.90
9881;DHT22;4979;51.014;6.678;2023-07-31T12:58:12;21.10;99.90
9881;DHT22;4979;51.014;6.678;2023-07-31T13:00:38;20.90;99.90
9881;DHT22;4979;51.014;6.678;2023-07-31T13:03:03;20.80;99.90
9881;DHT22;4979;51.014;6.678;2023-07-31T13:05:29;20.70;99.90
9881;DHT22;4979;51.014;6.678;2023-07-31T13:07:55;20.60;99.90
9881;DHT22;4979;51.014;6.678;2023-07-31T13:10:21;20.40;99.90
9881;DHT22;4979;51.014;6.678;2023-07-31T13:12:47;20.50;99.90
9881;DHT22;4979;51.014;6.678;2023-07-31T13:15:13;20.60;99.90
9881;DHT22;4979;51.014;6.678;2023-07-31T13:17:39;20.60;99.90
9881;DHT22;4979;51.014;6.678;2023-07-31T13:20:05;20.70;99.90
9881;DHT22;4979;51.014;6.678;2023-07-31T13:22:31;20.60;99.90
9881;DHT22;4979;51.014;6.678;2023-07-31T13:24:56;20.70;99.90
9881;DHT22;4979;51.014;6.678;2023-07-31T13:27:22;20.90;99.90
9881;DHT22;4979;51.014;6.678;2023-07-31T13:29:49;21.00;99.90
9881;DHT22;4979;51.014;6.678;2023-07-31T13:32:16;21.20;99.90
9881;DHT22;4979;51.014;6.678;2023-07-31T13:34:42;21.30;99.90
9881;DHT22;4979;51.014;6.678;2023-07-31T13:37:07;21.40;99.90
9881;DHT22;4979;51.014;6.678;2023-07-31T13:39:33;21.50;99.90
9881;DHT22;4979;51.014;6.678;2023-07-31T13:41:59;21.60;99.90
9881;DHT22;4979;51.014;6.678;2023-07-31T13:44:25;21.70;99.90
9881;DHT22;4979;51.014;6.678;2023-07-31T13:46:51;21.80;99.90
9881;DHT22;4979;51.014;6.678;2023-07-31T13:49:16;22.00;99.90
9881;DHT22;4979;51.014;6.678;2023-07-31T13:51:42;22.10;99.90
9881;DHT22;4979;51.014;6.678;2023-07-31T13:54:08;22.10;99.90
9881;DHT22;4979;51.014;6.678;2023-07-31T13:56:33;22.30;99.90
9881;DHT22;4979;51.014;6.678;2023-07-31T13:58:59;22.20;99.90
9881;DHT22;4979;51.014;6.678;2023-07-31T14:01:26;22.30;99.90
9881;DHT22;4979;51.014;6.678;2023-07-31T14:03:52;22.20;99.90
9881;DHT22;4979;51.014;6.678;2023-07-31T14:06:17;22.10;99.90
9881;DHT22;4979;51.014;6.678;2023-07-31T14:08:43;21.80;99.90
9881;DHT22;4979;51.014;6.678;2023-07-31T14:11:08;21.60;99.90
9881;DHT22;4979;51.014;6.678;2023-07-31T14:13:34;21.60;99.90
9881;DHT22;4979;51.014;6.678;2023-07-31T14:15:59;21.40;99.90
9881;DHT22;4979;51.014;6.678;2023-07-31T14:18:25;21.40;99.90
9881;DHT22;4979;51.014;6.678;2023-07-31T14:20:51;21.40;99.90
9881;DHT22;4979;51.014;6.678;2023-07-31T14:23:16;21.30;99.90
9881;DHT22;4979;51.014;6.678;2023-07-31T14:25:42;21.30;99.90
9881;DHT22;4979;51.014;6.678;2023-07-31T14:28:07;21.30;99.90
9881;DHT22;4979;51.014;6.678;2023-07-31T14:30:33;21.30;99.90
9881;DHT22;4979;51.014;6.678;2023-07-31T14:32:58;21.50;99.90
9881;DHT22;4979;51.014;6.678;2023-07-31T14:35:26;21.50;99.90
9881;DHT22;4979;51.014;6.678;2023-07-31T14:37:51;21.70;99.90
9881;DHT22;4979;51.014;6.678;2023-07-31T14:40:17;21.70;99.90
9881;DHT22;4979;51.014;6.678;2023-07-31T14:42:44;21.80;99.90
9881;DHT22;4979;51.014;6.678;2023-07-31T14:45:10;21.90;99.90
9881;DHT22;4979;51.014;6.678;2023-07-31T14:47:36;21.90;99.90
9881;DHT22;4979;51.014;6.678;2023-07-31T14:50:02;21.80;99.90
9881;DHT22;4979;51.014;6.678;2023-07-31T14:52:28;21.70;99.90
9881;DHT22;4979;51.014;6.678;2023-07-31T14:54:54;21.60;99.90
9881;DHT22;4979;51.014;6.678;2023-07-31T14:57:20;21.50;99.90
9881;DHT22;4979;51.014;6.678;2023-07-31T14:59:46;21.50;99.90
9881;DHT22;4979;51.014;6.678;2023-07-31T15:02:12;21.30;99.90
9881;DHT22;4979;51.014;6.678;2023-07-31T15:04:37;21.30;99.90
9881;DHT22;4979;51.014;6.678;2023-07-31T15:07:03;21.30;99.90
9881;DHT22;4979;51.014;6.678;2023-07-31T15:09:29;21.30;99.90
9881;DHT22;4979;51.014;6.678;2023-07-31T15:11:56;21.30;99.90
9881;DHT22;4979;51.014;6.678;2023-07-31T15:14:21;21.20;99.90
9881;DHT22;4979;51.014;6.678;2023-07-31T15:16:47;21.30;99.90
9881;DHT22;4979;51.014;6.678;2023-07-31T15:19:13;21.20;99.90
9881;DHT22;4979;51.014;6.678;2023-07-31T15:21:39;21.20;99.90
9881;DHT22;4979;51.014;6.678;2023-07-31T15:24:05;21.00;99.90
9881;DHT22;4979;51.014;6.678;2023-07-31T15:26:30;21.00;99.90
9881;DHT22;4979;51.014;6.678;2023-07-31T15:29:01;21.00;99.90
9881;DHT22;4979;51.014;6.678;2023-07-31T15:31:27;21.00;99.90
9881;DHT22;4979;51.014;6.678;2023-07-31T15:33:53;20.80;99.90
9881;DHT22;4979;51.014;6.678;2023-07-31T15:36:19;20.70;99.90
9881;DHT22;4979;51.014;6.678;2023-07-31T15:38:44;20.70;99.90
9881;DHT22;4979;51.014;6.678;2023-07-31T15:41:11;20.70;99.90
9881;DHT22;4979;51.014;6.678;2023-07-31T15:43:37;20.80;99.90
9881;DHT22;4979;51.014;6.678;2023-07-31T15:46:02;20.70;99.90
9881;DHT22;4979;51.014;6.678;2023-07-31T15:48:28;20.70;99.90
9881;DHT22;4979;51.014;6.678;2023-07-31T15:50:53;20.50;99.90
9881;DHT22;4979;51.014;6.678;2023-07-31T15:53:19;20.30;99.90
9881;DHT22;4979;51.014;6.678;2023-07-31T15:55:45;20.20;99.90
9881;DHT22;4979;51.014;6.678;2023-07-31T15:58:10;20.00;99.90
9881;DHT22;4979;51.014;6.678;2023-07-31T16:00:36;19.80;99.90
9881;DHT22;4979;51.014;6.678;2023-07-31T16:03:01;19.80;99.90
9881;DHT22;4979;51.014;6.678;2023-07-31T16:05:27;19.80;99.90
9881;DHT22;4979;51.014;6.678;2023-07-31T16:07:52;19.80;99.90
9881;DHT22;4979;51.014;6.678;2023-07-31T16:10:18;19.80;99.90